createdAt,value
2017-09-16T00:00:24.801Z,5.3
2017-09-16T00:01:27.241Z,5.3
2017-09-16T00:02:29.681Z,5.3
2017-09-16T00:03:32.126Z,5.2
2017-09-16T00:04:34.571Z,5.3
2017-09-16T00:05:37.014Z,5.2
2017-09-16T00:06:39.452Z,5.2
2017-09-16T00:07:41.904Z,5.2
2017-09-16T00:08:44.338Z,5.3
2017-09-16T00:09:46.792Z,5.3
2017-09-16T00:11:21.304Z,5.2
2017-09-16T00:12:23.699Z,5.2
2017-09-16T00:13:26.083Z,5.2
2017-09-16T00:14:28.478Z,5.2
2017-09-16T00:15:30.866Z,5.2
2017-09-16T00:16:33.246Z,5.2
2017-09-16T00:17:35.651Z,5.2
2017-09-16T00:18:38.037Z,5.2
2017-09-16T00:19:40.423Z,5.2
2017-09-16T00:20:42.812Z,5.2
2017-09-16T00:21:45.198Z,5.2
2017-09-16T00:22:47.590Z,5.2
2017-09-16T00:23:49.979Z,5.2
2017-09-16T00:24:52.357Z,5.2
2017-09-16T00:25:55.094Z,5.2
2017-09-16T00:26:57.481Z,5.2
2017-09-16T00:27:59.875Z,5.2
2017-09-16T00:29:02.303Z,5.2
2017-09-16T00:30:04.707Z,5.2
2017-09-16T00:31:07.095Z,5.2
2017-09-16T00:32:09.860Z,5.2
2017-09-16T00:33:12.586Z,5.3
2017-09-16T00:34:14.970Z,5.2
2017-09-16T00:35:17.358Z,5.2
2017-09-16T00:36:19.739Z,5.2
2017-09-16T00:37:22.129Z,5.2
2017-09-16T00:38:24.521Z,5.2
2017-09-16T00:39:26.909Z,5.2
2017-09-16T00:40:29.639Z,5.2
2017-09-16T00:41:32.016Z,5.2
2017-09-16T00:42:34.405Z,5.2
2017-09-16T00:43:36.793Z,5.2
2017-09-16T00:44:39.186Z,5.2
2017-09-16T00:45:41.567Z,5.2
2017-09-16T00:46:43.961Z,5.2
2017-09-16T00:47:46.343Z,5.2
2017-09-16T00:48:48.736Z,5.2
2017-09-16T00:49:51.123Z,5.3
2017-09-16T00:50:53.510Z,5.2
2017-09-16T00:51:55.889Z,5.2
2017-09-16T00:52:58.287Z,5.2
2017-09-16T00:54:00.675Z,5.2
2017-09-16T00:55:03.068Z,5.2
2017-09-16T00:56:05.446Z,5.2
2017-09-16T00:57:08.180Z,5.2
2017-09-16T00:58:10.568Z,5.2
2017-09-16T00:59:13.296Z,5.2
2017-09-16T01:00:16.017Z,5.2
2017-09-16T01:01:18.404Z,5.2
2017-09-16T01:02:21.143Z,5.2
2017-09-16T01:03:23.540Z,5.2
2017-09-16T01:04:25.926Z,5.2
2017-09-16T01:05:28.309Z,5.2
2017-09-16T01:06:30.699Z,5.2
2017-09-16T01:07:33.090Z,5.2
2017-09-16T01:08:35.810Z,5.2
2017-09-16T01:09:38.532Z,5.2
2017-09-16T01:10:40.920Z,5.2
2017-09-16T01:11:43.304Z,5.2
2017-09-16T01:12:45.706Z,5.2
2017-09-16T01:13:48.100Z,5.2
2017-09-16T01:14:50.480Z,5.2
2017-09-16T01:15:52.882Z,5.2
2017-09-16T01:16:55.637Z,5.2
2017-09-16T01:17:58.002Z,5.2
2017-09-16T01:19:00.393Z,5.2
2017-09-16T01:20:03.135Z,5.2
2017-09-16T01:21:05.521Z,5.2
2017-09-16T01:22:07.923Z,5.2
2017-09-16T01:23:10.303Z,5.2
2017-09-16T01:24:12.686Z,5.2
2017-09-16T01:25:15.081Z,5.2
2017-09-16T01:26:17.802Z,5.2
2017-09-16T01:27:20.194Z,5.2
2017-09-16T01:28:22.586Z,5.2
2017-09-16T01:29:24.964Z,5.2
2017-09-16T01:30:27.709Z,5.3
2017-09-16T01:31:30.106Z,5.2
2017-09-16T01:32:32.491Z,5.2
2017-09-16T01:33:34.876Z,5.2
2017-09-16T01:34:37.266Z,5.2
2017-09-16T01:35:39.662Z,5.2
2017-09-16T01:36:42.045Z,5.2
2017-09-16T01:37:44.430Z,5.2
2017-09-16T01:38:46.825Z,5.2
2017-09-16T01:39:49.214Z,5.2
2017-09-16T01:40:51.597Z,5.2
2017-09-16T01:41:53.992Z,5.2
2017-09-16T01:42:56.379Z,5.2
2017-09-16T01:43:58.767Z,5.2
2017-09-16T01:45:01.162Z,5.2
2017-09-16T01:46:03.550Z,5.2
2017-09-16T01:47:05.933Z,5.2
2017-09-16T01:48:08.327Z,5.2
2017-09-16T01:49:10.837Z,5.2
2017-09-16T01:50:13.223Z,5.2
2017-09-16T01:51:15.616Z,5.2
2017-09-16T01:52:18.340Z,5.2
2017-09-16T01:53:21.069Z,5.2
2017-09-16T01:54:23.802Z,5.2
2017-09-16T01:55:26.521Z,5.2
2017-09-16T01:56:28.920Z,5.2
2017-09-16T01:57:31.301Z,5.2
2017-09-16T01:58:33.687Z,5.2
2017-09-16T01:59:36.077Z,5.2
2017-09-16T02:00:38.470Z,5.2
2017-09-16T02:01:40.851Z,5.2
2017-09-16T02:02:43.239Z,5.2
2017-09-16T02:03:45.629Z,5.2
2017-09-16T02:04:48.019Z,5.2
2017-09-16T02:05:50.744Z,5.2
2017-09-16T02:06:53.136Z,5.2
2017-09-16T02:07:55.527Z,5.2
2017-09-16T02:08:58.261Z,5.2
2017-09-16T02:10:00.654Z,5.2
2017-09-16T02:11:03.043Z,5.2
2017-09-16T02:12:05.779Z,5.2
2017-09-16T02:13:08.169Z,5.2
2017-09-16T02:14:10.556Z,5.2
2017-09-16T02:15:12.940Z,5.2
2017-09-16T02:16:15.321Z,5.2
2017-09-16T02:17:17.710Z,5.2
2017-09-16T02:18:20.092Z,5.2
2017-09-16T02:19:22.476Z,5.2
2017-09-16T02:20:24.871Z,5.2
2017-09-16T02:21:27.250Z,5.2
2017-09-16T02:22:29.639Z,5.2
2017-09-16T02:23:32.028Z,5.2
2017-09-16T02:24:34.412Z,5.2
2017-09-16T02:25:36.797Z,5.2
2017-09-16T02:26:39.181Z,5.2
2017-09-16T02:27:41.563Z,5.2
2017-09-16T02:28:43.960Z,5.2
2017-09-16T02:29:46.344Z,5.2
2017-09-16T02:30:48.730Z,5.2
2017-09-16T02:31:51.124Z,5.2
2017-09-16T02:32:53.506Z,5.2
2017-09-16T02:33:55.894Z,5.2
2017-09-16T02:34:58.275Z,5.2
2017-09-16T02:36:00.662Z,5.2
2017-09-16T02:37:03.059Z,5.2
2017-09-16T02:38:05.438Z,5.2
2017-09-16T02:39:07.829Z,5.2
2017-09-16T02:40:10.226Z,5.2
2017-09-16T02:41:12.621Z,5.2
2017-09-16T02:42:15.683Z,5.2
2017-09-16T02:43:18.064Z,5.2
2017-09-16T02:44:20.447Z,5.2
2017-09-16T02:45:22.839Z,5.2
2017-09-16T02:46:25.561Z,5.2
2017-09-16T02:47:27.945Z,5.2
2017-09-16T02:48:30.338Z,5.1
2017-09-16T02:49:32.724Z,5.2
2017-09-16T02:50:35.114Z,5.2
2017-09-16T02:51:37.506Z,5.2
2017-09-16T02:52:39.885Z,5.2
2017-09-16T02:53:42.268Z,5.2
2017-09-16T02:54:44.666Z,5.2
2017-09-16T02:55:47.054Z,5.2
2017-09-16T02:56:49.446Z,5.2
2017-09-16T02:57:51.836Z,5.2
2017-09-16T02:58:54.220Z,5.1
2017-09-16T02:59:56.607Z,5.2
2017-09-16T03:00:58.998Z,5.2
2017-09-16T03:02:01.381Z,5.1
2017-09-16T03:03:03.766Z,5.2
2017-09-16T03:04:06.508Z,5.1
2017-09-16T03:05:08.888Z,5.2
2017-09-16T03:06:11.269Z,5.2
2017-09-16T03:07:13.660Z,5.2
2017-09-16T03:08:16.053Z,5.2
2017-09-16T03:09:18.785Z,5.1
2017-09-16T03:10:21.176Z,5.1
2017-09-16T03:11:23.557Z,5.2
2017-09-16T03:12:25.942Z,5.1
2017-09-16T03:13:28.339Z,5.1
2017-09-16T03:14:30.726Z,5.2
2017-09-16T03:15:33.107Z,5.2
2017-09-16T03:16:35.841Z,5.2
2017-09-16T03:17:38.226Z,5.2
2017-09-16T03:18:40.616Z,5.1
2017-09-16T03:19:43.337Z,5.2
2017-09-16T03:20:45.723Z,5.2
2017-09-16T03:21:48.106Z,5.2
2017-09-16T03:22:50.494Z,5.2
2017-09-16T03:23:52.882Z,5.2
2017-09-16T03:24:55.276Z,5.2
2017-09-16T03:25:57.658Z,5.2
2017-09-16T03:27:00.050Z,5.2
2017-09-16T03:28:02.448Z,5.2
2017-09-16T03:29:04.834Z,5.1
2017-09-16T03:30:07.905Z,5.2
2017-09-16T03:31:10.630Z,5.1
2017-09-16T03:32:13.013Z,5.2
2017-09-16T03:33:15.405Z,5.1
2017-09-16T03:34:17.787Z,5.2
2017-09-16T03:35:20.177Z,5.2
2017-09-16T03:36:22.570Z,5.2
2017-09-16T03:37:24.945Z,5.2
2017-09-16T03:38:27.335Z,5.2
2017-09-16T03:39:29.726Z,5.2
2017-09-16T03:40:32.451Z,5.1
2017-09-16T03:41:34.835Z,5.2
2017-09-16T03:42:37.223Z,5.2
2017-09-16T03:43:39.607Z,5.1
2017-09-16T03:44:42.000Z,5.2
2017-09-16T03:45:44.392Z,5.2
2017-09-16T03:46:46.780Z,5.2
2017-09-16T03:47:49.162Z,5.2
2017-09-16T03:48:51.573Z,5.1
2017-09-16T03:49:53.967Z,5.2
2017-09-16T03:50:56.350Z,5.2
2017-09-16T03:51:58.732Z,5.2
2017-09-16T03:53:01.113Z,5.1
2017-09-16T03:54:03.860Z,5.1
2017-09-16T03:55:06.248Z,5.2
2017-09-16T03:56:08.630Z,5.1
2017-09-16T03:57:11.019Z,5.2
2017-09-16T03:58:13.403Z,5.2
2017-09-16T03:59:15.798Z,5.1
2017-09-16T04:00:18.178Z,5.2
2017-09-16T04:01:20.565Z,5.1
2017-09-16T04:02:22.949Z,5.2
2017-09-16T04:03:25.337Z,5.1
2017-09-16T04:04:27.731Z,5.1
2017-09-16T04:05:30.113Z,5.1
2017-09-16T04:06:32.503Z,5.1
2017-09-16T04:07:34.892Z,5.1
2017-09-16T04:08:37.323Z,5.2
2017-09-16T04:09:39.719Z,5.2
2017-09-16T04:10:42.104Z,5.2
2017-09-16T04:11:44.833Z,5.2
2017-09-16T04:12:47.226Z,5.3
2017-09-16T04:13:49.616Z,5.1
2017-09-16T04:14:51.999Z,5.2
2017-09-16T04:15:54.402Z,5.1
2017-09-16T04:16:56.788Z,5.2
2017-09-16T04:17:59.174Z,5.1
2017-09-16T04:19:01.561Z,5.2
2017-09-16T04:20:03.949Z,5.1
2017-09-16T04:21:06.331Z,5.1
2017-09-16T04:22:08.723Z,5.2
2017-09-16T04:23:11.104Z,5.2
2017-09-16T04:24:13.828Z,5.2
2017-09-16T04:25:16.564Z,5.2
2017-09-16T04:26:18.956Z,5.2
2017-09-16T04:27:21.349Z,5.1
2017-09-16T04:28:24.096Z,5.1
2017-09-16T04:29:26.875Z,5.2
2017-09-16T04:30:29.314Z,5.1
2017-09-16T04:31:31.743Z,5.2
2017-09-16T04:32:34.193Z,5.1
2017-09-16T04:33:36.632Z,5.1
2017-09-16T04:34:39.106Z,5.1
2017-09-16T04:35:41.550Z,5.1
2017-09-16T04:36:44.017Z,5.2
2017-09-16T04:37:46.463Z,5.1
2017-09-16T04:38:48.927Z,5.1
2017-09-16T04:39:51.366Z,5.1
2017-09-16T04:40:53.847Z,5.2
2017-09-16T04:41:56.972Z,5.1
2017-09-16T04:42:59.444Z,5.1
2017-09-16T04:44:01.880Z,5.1
2017-09-16T04:45:04.341Z,5.2
2017-09-16T04:46:06.788Z,5.1
2017-09-16T04:47:09.237Z,5.1
2017-09-16T04:48:11.708Z,5.1
2017-09-16T04:49:14.148Z,5.1
2017-09-16T04:50:16.599Z,5.1
2017-09-16T04:51:19.052Z,5.1
2017-09-16T04:52:21.847Z,5.1
2017-09-16T04:53:24.297Z,5.1
2017-09-16T04:54:26.745Z,5.1
2017-09-16T04:55:29.546Z,5.1
2017-09-16T04:56:32.670Z,5.1
2017-09-16T04:57:35.112Z,5.1
2017-09-16T04:58:37.554Z,5.1
2017-09-16T04:59:39.993Z,5.1
2017-09-16T05:00:42.445Z,5.1
2017-09-16T05:01:45.227Z,5.1
2017-09-16T05:02:47.673Z,5.1
2017-09-16T05:03:50.130Z,5.1
2017-09-16T05:04:52.573Z,5.1
2017-09-16T05:05:55.018Z,5.1
2017-09-16T05:06:57.461Z,5.1
2017-09-16T05:07:59.909Z,5.1
2017-09-16T05:09:02.374Z,5.1
2017-09-16T05:10:04.823Z,5.1
2017-09-16T05:11:07.259Z,5.1
2017-09-16T05:12:09.695Z,5.1
2017-09-16T05:13:12.148Z,5.1
2017-09-16T05:14:14.595Z,5.1
2017-09-16T05:15:17.060Z,5.2
2017-09-16T05:16:19.510Z,5.2
2017-09-16T05:17:21.947Z,5.1
2017-09-16T05:18:24.407Z,5.2
2017-09-16T05:19:26.864Z,5.1
2017-09-16T05:20:29.324Z,5.1
2017-09-16T05:21:31.772Z,5.2
2017-09-16T05:22:34.214Z,5.1
2017-09-16T05:23:36.660Z,5.1
2017-09-16T05:24:39.123Z,5.2
2017-09-16T05:25:41.572Z,5.1
2017-09-16T05:26:44.006Z,5.1
2017-09-16T05:27:46.455Z,5.2
2017-09-16T05:28:48.892Z,5.1
2017-09-16T05:29:51.348Z,5.1
2017-09-16T05:30:53.834Z,5.1
2017-09-16T05:31:56.288Z,5.2
2017-09-16T05:32:59.115Z,5.1
2017-09-16T05:34:01.543Z,5.2
2017-09-16T05:35:03.987Z,5.1
2017-09-16T05:36:06.759Z,5.2
2017-09-16T05:37:09.212Z,5.1
2017-09-16T05:38:11.859Z,5.3
2017-09-16T05:39:14.296Z,5.2
2017-09-16T05:40:16.742Z,5.1
2017-09-16T05:41:19.192Z,5.2
2017-09-16T05:42:21.661Z,5.2
2017-09-16T05:43:24.100Z,5.2
2017-09-16T05:44:26.570Z,5.2
2017-09-16T05:45:28.993Z,5.2
2017-09-16T05:46:31.441Z,5.2
2017-09-16T05:47:33.890Z,5.3
2017-09-16T05:48:36.440Z,5.2
2017-09-16T05:49:38.890Z,5.2
2017-09-16T05:50:41.337Z,5.2
2017-09-16T05:51:43.770Z,5.2
2017-09-16T05:52:46.216Z,5.2
2017-09-16T05:53:48.734Z,5.2
2017-09-16T05:54:51.172Z,5.2
2017-09-16T05:55:53.613Z,5.2
2017-09-16T05:56:56.061Z,5.2
2017-09-16T05:57:58.502Z,5.1
2017-09-16T05:59:01.030Z,5.2
2017-09-16T06:00:03.818Z,5.2
2017-09-16T06:01:06.254Z,5.2
2017-09-16T06:02:08.688Z,5.2
2017-09-16T06:03:11.136Z,5.2
2017-09-16T06:04:13.575Z,5.2
2017-09-16T06:05:16.021Z,5.2
2017-09-16T06:06:18.457Z,5.3
2017-09-16T06:07:20.892Z,5.2
2017-09-16T06:08:23.342Z,5.2
2017-09-16T06:09:25.841Z,5.2
2017-09-16T06:10:28.281Z,5.2
2017-09-16T06:11:30.725Z,5.3
2017-09-16T06:12:33.162Z,5.2
2017-09-16T06:13:35.611Z,5.2
2017-09-16T06:14:38.411Z,5.2
2017-09-16T06:15:41.188Z,5.2
2017-09-16T06:16:43.639Z,5.2
2017-09-16T06:17:46.070Z,5.3
2017-09-16T06:18:48.517Z,5.2
2017-09-16T06:19:50.957Z,5.2
2017-09-16T06:20:53.401Z,5.2
2017-09-16T06:21:55.838Z,5.2
2017-09-16T06:22:58.285Z,5.3
2017-09-16T06:24:00.733Z,5.2
2017-09-16T06:25:03.195Z,5.3
2017-09-16T06:26:05.634Z,5.2
2017-09-16T06:27:08.077Z,5.3
2017-09-16T06:28:10.525Z,5.2
2017-09-16T06:29:12.969Z,5.3
2017-09-16T06:30:15.411Z,5.2
2017-09-16T06:31:17.856Z,5.3
2017-09-16T06:32:20.592Z,5.2
2017-09-16T06:33:22.981Z,5.2
2017-09-16T06:34:25.368Z,5.3
2017-09-16T06:35:27.761Z,5.3
2017-09-16T06:36:30.162Z,5.3
2017-09-16T06:37:32.564Z,5.3
2017-09-16T06:38:34.954Z,5.3
2017-09-16T06:39:37.350Z,5.3
2017-09-16T06:40:40.102Z,5.3
2017-09-16T06:41:42.508Z,5.3
2017-09-16T06:42:44.893Z,5.3
2017-09-16T06:43:47.303Z,5.3
2017-09-16T06:44:49.704Z,5.4
2017-09-16T06:45:52.110Z,5.4
2017-09-16T06:46:54.490Z,5.4
2017-09-16T06:47:56.879Z,5.3
2017-09-16T06:48:59.273Z,5.3
2017-09-16T06:50:02.359Z,5.3
2017-09-16T06:51:04.771Z,5.3
2017-09-16T06:52:07.165Z,5.3
2017-09-16T06:53:09.568Z,5.3
2017-09-16T06:54:11.972Z,5.4
2017-09-16T06:55:14.390Z,5.4
2017-09-16T06:56:16.802Z,5.4
2017-09-16T06:57:19.220Z,5.3
2017-09-16T06:58:21.617Z,5.4
2017-09-16T06:59:24.016Z,5.4
2017-09-16T07:00:26.468Z,5.4
2017-09-16T07:01:28.878Z,5.4
2017-09-16T07:02:31.278Z,5.4
2017-09-16T07:03:34.010Z,5.4
2017-09-16T07:04:36.418Z,5.4
2017-09-16T07:05:38.803Z,5.4
2017-09-16T07:06:41.203Z,5.4
2017-09-16T07:07:43.610Z,5.4
2017-09-16T07:08:45.999Z,5.4
2017-09-16T07:09:48.409Z,5.4
2017-09-16T07:10:50.794Z,5.4
2017-09-16T07:11:53.202Z,5.5
2017-09-16T07:12:55.601Z,5.5
2017-09-16T07:13:58.340Z,5.4
2017-09-16T07:15:00.741Z,5.5
2017-09-16T07:16:03.145Z,5.4
2017-09-16T07:17:05.540Z,5.4
2017-09-16T07:18:07.941Z,5.5
2017-09-16T07:19:10.681Z,5.5
2017-09-16T07:20:13.082Z,5.4
2017-09-16T07:21:15.485Z,5.4
2017-09-16T07:22:18.236Z,5.5
2017-09-16T07:23:20.621Z,5.5
2017-09-16T07:24:23.011Z,5.4
2017-09-16T07:25:25.406Z,5.5
2017-09-16T07:26:27.808Z,5.5
2017-09-16T07:27:30.527Z,5.4
2017-09-16T07:28:32.914Z,5.5
2017-09-16T07:29:35.320Z,5.4
2017-09-16T07:30:37.719Z,5.4
2017-09-16T07:31:40.112Z,5.5
2017-09-16T07:32:42.501Z,5.5
2017-09-16T07:33:45.233Z,5.4
2017-09-16T07:34:47.623Z,5.5
2017-09-16T07:35:50.012Z,5.5
2017-09-16T07:36:52.749Z,5.5
2017-09-16T07:37:55.469Z,5.5
2017-09-16T07:38:57.864Z,5.5
2017-09-16T07:40:00.264Z,5.5
2017-09-16T07:41:02.654Z,5.5
2017-09-16T07:42:05.048Z,5.5
2017-09-16T07:43:07.437Z,5.6
2017-09-16T07:44:09.821Z,5.5
2017-09-16T07:45:12.224Z,5.6
2017-09-16T07:46:14.613Z,5.5
2017-09-16T07:47:17.000Z,5.5
2017-09-16T07:48:19.397Z,5.5
2017-09-16T07:49:21.989Z,5.5
2017-09-16T07:50:24.379Z,5.6
2017-09-16T07:51:26.781Z,5.6
2017-09-16T07:52:29.167Z,5.5
2017-09-16T07:53:31.561Z,5.5
2017-09-16T07:54:33.955Z,5.6
2017-09-16T07:55:36.349Z,5.5
2017-09-16T07:56:38.742Z,5.5
2017-09-16T07:57:41.142Z,5.6
2017-09-16T07:58:43.537Z,5.6
2017-09-16T07:59:45.930Z,5.6
2017-09-16T08:00:48.330Z,5.6
2017-09-16T08:01:50.724Z,5.5
2017-09-16T08:02:53.126Z,5.6
2017-09-16T08:03:55.506Z,5.6
2017-09-16T08:04:57.889Z,5.6
2017-09-16T08:06:00.289Z,5.5
2017-09-16T08:07:03.019Z,5.6
2017-09-16T08:08:05.411Z,5.6
2017-09-16T08:09:07.797Z,5.6
2017-09-16T08:10:10.202Z,5.6
2017-09-16T08:11:12.593Z,5.6
2017-09-16T08:12:14.999Z,5.6
2017-09-16T08:13:17.393Z,5.6
2017-09-16T08:14:19.782Z,5.6
2017-09-16T08:15:22.182Z,5.6
2017-09-16T08:16:24.573Z,5.6
2017-09-16T08:17:26.974Z,5.7
2017-09-16T08:18:30.057Z,5.7
2017-09-16T08:19:32.439Z,5.8
2017-09-16T08:20:35.209Z,5.7
2017-09-16T08:21:37.600Z,5.7
2017-09-16T08:22:39.997Z,5.8
2017-09-16T08:23:42.396Z,5.8
2017-09-16T08:24:44.790Z,5.8
2017-09-16T08:25:47.186Z,5.8
2017-09-16T08:26:49.584Z,5.8
2017-09-16T08:27:51.970Z,5.8
2017-09-16T08:28:54.366Z,5.8
2017-09-16T08:29:56.761Z,5.8
2017-09-16T08:30:59.156Z,5.9
2017-09-16T08:32:01.559Z,5.8
2017-09-16T08:33:03.955Z,5.9
2017-09-16T08:34:06.340Z,5.9
2017-09-16T08:35:08.739Z,5.9
2017-09-16T08:36:11.137Z,5.9
2017-09-16T08:37:13.537Z,5.9
2017-09-16T08:38:15.943Z,5.9
2017-09-16T08:39:18.335Z,5.9
2017-09-16T08:40:20.741Z,5.9
2017-09-16T08:41:23.139Z,6
2017-09-16T08:42:25.543Z,5.9
2017-09-16T08:43:27.934Z,6
2017-09-16T08:44:30.685Z,6
2017-09-16T08:45:33.079Z,5.9
2017-09-16T08:46:35.471Z,6
2017-09-16T08:47:37.879Z,6
2017-09-16T08:48:40.631Z,6
2017-09-16T08:49:43.038Z,6
2017-09-16T08:50:45.443Z,6.1
2017-09-16T08:51:47.839Z,6.1
2017-09-16T08:52:50.250Z,6.1
2017-09-16T08:53:53.012Z,6
2017-09-16T08:54:55.413Z,6
2017-09-16T08:55:57.808Z,6
2017-09-16T08:57:00.209Z,6.1
2017-09-16T08:58:02.605Z,6.1
2017-09-16T08:59:05.008Z,6.1
2017-09-16T09:00:07.417Z,6.1
2017-09-16T09:01:09.809Z,6.1
2017-09-16T09:02:12.203Z,6.1
2017-09-16T09:03:14.608Z,6.1
2017-09-16T09:04:17.353Z,6.1
2017-09-16T09:05:19.756Z,6.1
2017-09-16T09:06:22.162Z,6.1
2017-09-16T09:07:24.571Z,6.1
2017-09-16T09:08:26.965Z,6.1
2017-09-16T09:09:29.371Z,6.1
2017-09-16T09:10:31.780Z,6.1
2017-09-16T09:11:34.184Z,6.2
2017-09-16T09:12:36.594Z,6.2
2017-09-16T09:13:38.998Z,6.1
2017-09-16T09:14:41.400Z,6.2
2017-09-16T09:15:43.798Z,6.2
2017-09-16T09:16:46.206Z,6.2
2017-09-16T09:17:48.603Z,6.2
2017-09-16T09:18:51.011Z,6.2
2017-09-16T09:19:53.421Z,6.2
2017-09-16T09:20:55.819Z,6.2
2017-09-16T09:21:58.227Z,6.2
2017-09-16T09:23:00.627Z,6.2
2017-09-16T09:24:03.028Z,6.3
2017-09-16T09:25:05.433Z,6.3
2017-09-16T09:26:07.835Z,6.3
2017-09-16T09:27:10.233Z,6.3
2017-09-16T09:28:12.638Z,6.3
2017-09-16T09:29:15.047Z,6.3
2017-09-16T09:30:17.793Z,6.3
2017-09-16T09:31:20.187Z,6.3
2017-09-16T09:32:22.600Z,6.3
2017-09-16T09:33:25.008Z,6.3
2017-09-16T09:34:27.401Z,6.3
2017-09-16T09:35:29.810Z,6.3
2017-09-16T09:36:32.212Z,6.3
2017-09-16T09:37:34.611Z,6.2
2017-09-16T09:38:37.361Z,6.3
2017-09-16T09:39:40.094Z,6.2
2017-09-16T09:40:42.492Z,6.2
2017-09-16T09:41:44.909Z,6.3
2017-09-16T09:42:47.297Z,6.3
2017-09-16T09:43:49.714Z,6.2
2017-09-16T09:44:52.120Z,6.2
2017-09-16T09:45:54.520Z,6.3
2017-09-16T09:46:56.925Z,6.2
2017-09-16T09:47:59.335Z,6.3
2017-09-16T09:49:01.734Z,6.2
2017-09-16T09:50:04.486Z,6.2
2017-09-16T09:51:06.881Z,6.2
2017-09-16T09:52:09.292Z,6.2
2017-09-16T09:53:11.692Z,6.2
2017-09-16T09:54:14.120Z,6.2
2017-09-16T09:55:16.519Z,6.2
2017-09-16T09:56:18.936Z,6.2
2017-09-16T09:57:21.350Z,6.2
2017-09-16T09:58:23.761Z,6.2
2017-09-16T09:59:26.502Z,6.2
2017-09-16T10:00:28.903Z,6.2
2017-09-16T10:01:31.316Z,6.2
2017-09-16T10:02:33.724Z,6.2
2017-09-16T10:03:36.137Z,6.2
2017-09-16T10:04:38.557Z,6.2
2017-09-16T10:05:40.954Z,6.2
2017-09-16T10:06:43.349Z,6.2
2017-09-16T10:07:45.764Z,6.1
2017-09-16T10:08:48.491Z,6.2
2017-09-16T10:09:50.885Z,6.2
2017-09-16T10:10:53.647Z,6.2
2017-09-16T10:11:56.057Z,6.1
2017-09-16T10:12:58.481Z,6.1
2017-09-16T10:14:00.891Z,6.1
2017-09-16T10:15:03.285Z,6.1
2017-09-16T10:16:05.689Z,6.1
2017-09-16T10:17:08.104Z,6.1
2017-09-16T10:18:10.859Z,6.1
2017-09-16T10:19:13.268Z,6.1
2017-09-16T10:20:15.667Z,6.2
2017-09-16T10:21:18.065Z,6.2
2017-09-16T10:22:20.471Z,6.2
2017-09-16T10:23:22.885Z,6.2
2017-09-16T10:24:25.294Z,6.2
2017-09-16T10:25:28.029Z,6.2
2017-09-16T10:26:30.429Z,6.2
2017-09-16T10:27:33.174Z,6.2
2017-09-16T10:28:36.260Z,6.2
2017-09-16T10:29:38.686Z,6.2
2017-09-16T10:30:41.116Z,6.2
2017-09-16T10:31:44.196Z,6.2
2017-09-16T10:32:46.610Z,6.2
2017-09-16T10:33:49.006Z,6.2
2017-09-16T10:34:51.397Z,6.2
2017-09-16T10:35:53.805Z,6.2
2017-09-16T10:36:56.213Z,6.3
2017-09-16T10:37:58.960Z,6.3
2017-09-16T10:39:01.351Z,6.3
2017-09-16T10:40:03.757Z,6.3
2017-09-16T10:41:06.153Z,6.3
2017-09-16T10:42:08.567Z,6.4
2017-09-16T10:43:10.966Z,6.4
2017-09-16T10:44:13.405Z,6.4
2017-09-16T10:45:16.159Z,6.4
2017-09-16T10:46:18.952Z,6.4
2017-09-16T10:47:21.376Z,6.5
2017-09-16T10:48:23.802Z,6.5
2017-09-16T10:49:26.212Z,6.5
2017-09-16T10:50:28.632Z,6.6
2017-09-16T10:51:31.040Z,6.6
2017-09-16T10:52:33.441Z,6.6
2017-09-16T10:53:35.848Z,6.6
2017-09-16T10:54:38.258Z,6.6
2017-09-16T10:55:40.653Z,6.5
2017-09-16T10:56:43.058Z,6.6
2017-09-16T10:57:45.466Z,6.6
2017-09-16T10:58:47.878Z,6.6
2017-09-16T10:59:50.624Z,6.5
2017-09-16T11:00:53.041Z,6.5
2017-09-16T11:01:55.449Z,6.5
2017-09-16T11:02:57.866Z,6.5
2017-09-16T11:04:00.271Z,6.5
2017-09-16T11:05:02.677Z,6.5
2017-09-16T11:06:05.075Z,6.5
2017-09-16T11:07:07.829Z,6.5
2017-09-16T11:08:10.253Z,6.5
2017-09-16T11:09:12.650Z,6.5
2017-09-16T11:10:15.050Z,6.5
2017-09-16T11:11:17.496Z,6.5
2017-09-16T11:12:20.231Z,6.5
2017-09-16T11:13:22.649Z,6.5
2017-09-16T11:14:25.046Z,6.5
2017-09-16T11:15:27.798Z,6.5
2017-09-16T11:16:30.202Z,6.5
2017-09-16T11:17:32.616Z,6.5
2017-09-16T11:18:35.022Z,6.5
2017-09-16T11:19:37.770Z,6.5
2017-09-16T11:20:40.180Z,6.5
2017-09-16T11:21:42.938Z,6.5
2017-09-16T11:22:45.340Z,6.5
2017-09-16T11:23:47.768Z,6.5
2017-09-16T11:24:50.198Z,6.6
2017-09-16T11:25:52.608Z,6.6
2017-09-16T11:26:55.070Z,6.6
2017-09-16T11:27:57.480Z,6.6
2017-09-16T11:28:59.887Z,6.5
2017-09-16T11:30:02.302Z,6.5
2017-09-16T11:31:04.696Z,6.5
2017-09-16T11:32:07.103Z,6.5
2017-09-16T11:33:09.850Z,6.5
2017-09-16T11:34:12.261Z,6.5
2017-09-16T11:35:14.684Z,6.5
2017-09-16T11:36:17.091Z,6.5
2017-09-16T11:37:19.829Z,6.5
2017-09-16T11:38:22.260Z,6.5
2017-09-16T11:39:24.664Z,6.6
2017-09-16T11:40:27.114Z,6.5
2017-09-16T11:41:29.518Z,6.6
2017-09-16T11:42:31.963Z,6.6
2017-09-16T11:43:34.388Z,6.6
2017-09-16T11:44:36.796Z,6.6
2017-09-16T11:45:39.189Z,6.6
2017-09-16T11:46:41.609Z,6.6
2017-09-16T11:47:44.051Z,6.6
2017-09-16T11:48:46.469Z,6.6
2017-09-16T11:49:48.876Z,6.6
2017-09-16T11:50:51.279Z,6.6
2017-09-16T11:51:53.683Z,6.5
2017-09-16T11:52:56.104Z,6.6
2017-09-16T11:53:58.878Z,6.6
2017-09-16T11:55:01.288Z,6.6
2017-09-16T11:56:03.687Z,6.6
2017-09-16T11:57:06.435Z,6.6
2017-09-16T11:58:08.838Z,6.6
2017-09-16T11:59:11.239Z,6.6
2017-09-16T12:00:13.646Z,6.6
2017-09-16T12:01:16.051Z,6.6
2017-09-16T12:02:18.805Z,6.6
2017-09-16T12:03:21.543Z,6.6
2017-09-16T12:04:23.947Z,6.6
2017-09-16T12:05:26.353Z,6.6
2017-09-16T12:06:28.756Z,6.6
2017-09-16T12:07:31.163Z,6.6
2017-09-16T12:08:33.572Z,6.6
2017-09-16T12:09:35.970Z,6.5
2017-09-16T12:10:38.382Z,6.5
2017-09-16T12:11:40.782Z,6.5
2017-09-16T12:12:43.189Z,6.6
2017-09-16T12:13:45.952Z,6.5
2017-09-16T12:14:48.353Z,6.5
2017-09-16T12:15:50.755Z,6.6
2017-09-16T12:16:53.157Z,6.5
2017-09-16T12:17:55.777Z,6.5
2017-09-16T12:18:58.180Z,6.5
2017-09-16T12:20:00.593Z,6.4
2017-09-16T12:21:02.994Z,6.5
2017-09-16T12:22:05.403Z,6.5
2017-09-16T12:23:07.814Z,6.5
2017-09-16T12:24:10.214Z,6.5
2017-09-16T12:25:12.615Z,6.5
2017-09-16T12:26:15.023Z,6.5
2017-09-16T12:27:17.430Z,6.6
2017-09-16T12:28:19.829Z,6.5
2017-09-16T12:29:22.236Z,6.5
2017-09-16T12:30:24.867Z,6.5
2017-09-16T12:32:18.638Z,6.5
2017-09-16T12:33:21.094Z,6.5
2017-09-16T12:34:23.554Z,6.5
2017-09-16T12:35:26.008Z,6.5
2017-09-16T12:36:28.477Z,6.5
2017-09-16T12:37:31.130Z,6.5
2017-09-16T12:38:33.589Z,6.5
2017-09-16T12:39:36.042Z,6.5
2017-09-16T12:40:38.498Z,6.5
2017-09-16T12:41:40.963Z,6.6
2017-09-16T12:42:43.761Z,6.6
2017-09-16T12:43:46.226Z,6.6
2017-09-16T12:44:48.686Z,6.6
2017-09-16T12:45:51.143Z,6.6
2017-09-16T12:46:53.613Z,6.6
2017-09-16T12:47:56.425Z,6.6
2017-09-16T12:48:58.896Z,6.6
2017-09-16T12:50:01.350Z,6.6
2017-09-16T12:51:03.810Z,6.6
2017-09-16T12:52:06.266Z,6.6
2017-09-16T12:53:08.727Z,6.7
2017-09-16T12:54:11.186Z,6.7
2017-09-16T12:55:13.649Z,6.7
2017-09-16T12:56:16.104Z,6.7
2017-09-16T12:57:18.566Z,6.7
2017-09-16T12:58:21.030Z,6.7
2017-09-16T12:59:23.493Z,6.7
2017-09-16T13:00:25.964Z,6.7
2017-09-16T13:01:28.445Z,6.8
2017-09-16T13:02:31.265Z,6.7
2017-09-16T13:03:33.721Z,6.8
2017-09-16T13:04:36.187Z,6.8
2017-09-16T13:05:38.645Z,6.8
2017-09-16T13:06:41.111Z,6.8
2017-09-16T13:07:43.569Z,6.8
2017-09-16T13:08:46.035Z,6.8
2017-09-16T13:09:48.489Z,6.8
2017-09-16T13:10:50.963Z,6.8
2017-09-16T13:11:53.417Z,6.8
2017-09-16T13:12:56.236Z,6.8
2017-09-16T13:13:58.698Z,6.8
2017-09-16T13:15:01.161Z,6.8
2017-09-16T13:16:03.626Z,6.8
2017-09-16T13:17:06.085Z,6.8
2017-09-16T13:18:08.548Z,6.8
2017-09-16T13:19:11.024Z,6.8
2017-09-16T13:20:13.485Z,6.8
2017-09-16T13:21:15.944Z,6.8
2017-09-16T13:22:18.405Z,6.8
2017-09-16T13:23:20.873Z,6.8
2017-09-16T13:24:23.334Z,6.8
2017-09-16T13:25:25.798Z,6.8
2017-09-16T13:26:28.603Z,6.8
2017-09-16T13:27:31.412Z,6.7
2017-09-16T13:28:33.867Z,6.8
2017-09-16T13:29:36.334Z,6.7
2017-09-16T13:30:38.797Z,6.7
2017-09-16T13:31:41.260Z,6.8
2017-09-16T13:32:44.073Z,6.7
2017-09-16T13:33:46.533Z,6.7
2017-09-16T13:34:48.984Z,6.7
2017-09-16T13:35:51.454Z,6.7
2017-09-16T13:36:53.913Z,6.7
2017-09-16T13:37:56.369Z,6.7
2017-09-16T13:38:58.831Z,6.7
2017-09-16T13:40:01.308Z,6.7
2017-09-16T13:41:03.749Z,6.7
2017-09-16T13:42:06.214Z,6.7
2017-09-16T13:43:08.679Z,6.6
2017-09-16T13:44:11.136Z,6.7
2017-09-16T13:45:13.948Z,6.6
2017-09-16T13:46:16.751Z,6.6
2017-09-16T13:47:19.205Z,6.6
2017-09-16T13:48:22.011Z,6.6
2017-09-16T13:49:24.468Z,6.6
2017-09-16T13:50:26.927Z,6.6
2017-09-16T13:51:29.395Z,6.6
2017-09-16T13:52:32.194Z,6.6
2017-09-16T13:53:34.655Z,6.6
2017-09-16T13:54:37.120Z,6.6
2017-09-16T13:55:39.575Z,6.6
2017-09-16T13:56:42.030Z,6.5
2017-09-16T13:57:44.489Z,6.5
2017-09-16T13:58:46.949Z,6.5
2017-09-16T13:59:49.409Z,6.5
2017-09-16T14:00:51.873Z,6.5
2017-09-16T14:01:54.671Z,6.5
2017-09-16T14:02:57.135Z,6.5
2017-09-16T14:03:59.594Z,6.5
2017-09-16T14:05:02.406Z,6.5
2017-09-16T14:06:05.205Z,6.5
2017-09-16T14:07:07.668Z,6.5
2017-09-16T14:08:10.469Z,6.5
2017-09-16T14:09:12.927Z,6.5
2017-09-16T14:10:15.378Z,6.5
2017-09-16T14:11:17.843Z,6.5
2017-09-16T14:12:20.639Z,6.4
2017-09-16T14:13:23.092Z,6.4
2017-09-16T14:14:25.551Z,6.4
2017-09-16T14:15:28.006Z,6.5
2017-09-16T14:16:30.465Z,6.4
2017-09-16T14:17:32.929Z,6.5
2017-09-16T14:18:35.379Z,6.4
2017-09-16T14:19:37.842Z,6.4
2017-09-16T14:20:40.309Z,6.4
2017-09-16T14:21:42.959Z,6.4